Time;durP1;ratioP1;P1;durP2;ratioP2;P2;SDS_P1;SDS_P2;PMS_P1;PMS_P2;Temp;Humidity;BMP_temperature;BMP_pressure;BME280_temperature;BME280_humidity;BME280_pressure;Samples;Min_cycle;Max_cycle;Signal;HPM_P1;HPM_P2
2022/10/05 00:01:05;;;;;;;18.33;9.83;;;11.50;79.80;;;;;;5037167;28;20471;-77
2022/10/05 00:03:35;;;;;;;24.20;13.23;;;11.50;79.80;;;;;;5021858;28;20453;-76
2022/10/05 00:06:04;;;;;;;46.47;18.93;;;11.40;79.90;;;;;;5035763;28;20464;-76
2022/10/05 00:08:35;;;;;;;32.30;14.10;;;11.40;79.80;;;;;;5035080;28;20938;-76
2022/10/05 00:11:06;;;;;;;24.57;13.10;;;11.40;79.80;;;;;;5027611;28;21030;-76
2022/10/05 00:13:35;;;;;;;21.00;11.50;;;11.30;79.70;;;;;;5029112;28;21034;-76
2022/10/05 00:16:12;;;;;;;42.03;19.20;;;11.30;79.80;;;;;;5034881;28;20475;-76
2022/10/05 00:18:40;;;;;;;34.30;15.87;;;11.30;80.00;;;;;;5027465;28;21040;-75
2022/10/05 00:21:17;;;;;;;23.07;11.17;;;11.30;80.00;;;;;;5026232;28;20467;-74
2022/10/05 00:23:46;;;;;;;18.40;10.37;;;11.30;80.00;;;;;;5027271;28;20464;-76
2022/10/05 00:26:19;;;;;;;16.03;9.03;;;11.30;80.00;;;;;;5027998;28;20468;-74
2022/10/05 00:28:48;;;;;;;17.27;7.70;;;11.30;80.00;;;;;;5025823;28;20533;-76
2022/10/05 00:31:19;;;;;;;12.43;7.40;;;11.30;80.00;;;;;;5027269;28;21321;-74
2022/10/05 00:33:47;;;;;;;11.50;6.77;;;11.30;79.90;;;;;;5020594;28;20562;-76
2022/10/05 00:36:15;;;;;;;10.60;6.77;;;11.30;79.90;;;;;;5026553;28;20839;-74
2022/10/05 00:38:47;;;;;;;11.40;6.40;;;11.30;79.80;;;;;;5025854;28;20491;-74
2022/10/05 00:41:20;;;;;;;12.20;6.90;;;11.30;79.70;;;;;;5028778;28;20455;-74
2022/10/05 00:44:15;;;;;;;13.13;7.27;;;11.20;79.60;;;;;;5022138;28;20537;-76
2022/10/05 00:46:55;;;;;;;13.80;7.93;;;11.20;79.80;;;;;;5023007;28;20472;-75
2022/10/05 00:49:39;;;;;;;16.03;8.53;;;11.20;79.60;;;;;;5030445;28;20451;-75
2022/10/05 00:52:19;;;;;;;15.53;8.87;;;11.10;79.60;;;;;;5029181;28;20503;-75
2022/10/05 00:54:57;;;;;;;20.40;10.60;;;11.10;79.70;;;;;;5028709;28;20495;-76
2022/10/05 00:57:33;;;;;;;25.70;11.07;;;11.10;79.70;;;;;;5022177;28;20507;-75
2022/10/05 01:00:06;;;;;;;21.07;10.60;;;11.10;79.70;;;;;;5029618;28;20467;-75
2022/10/05 01:02:47;;;;;;;23.50;9.90;;;11.00;79.60;;;;;;5032146;28;20980;-76
2022/10/05 01:05:25;;;;;;;18.50;8.47;;;11.00;79.70;;;;;;5037212;28;20473;-75
2022/10/05 01:08:09;;;;;;;11.43;6.47;;;11.00;79.70;;;;;;5041825;28;20476;-77
2022/10/05 01:10:45;;;;;;;9.57;5.53;;;11.00;79.80;;;;;;5032987;28;20443;-76
2022/10/05 01:13:23;;;;;;;9.37;6.20;;;11.00;79.70;;;;;;5032794;28;20471;-76
2022/10/05 01:16:23;;;;;;;13.00;5.40;;;11.00;79.80;;;;;;5030958;28;20968;-74
2022/10/05 01:18:59;;;;;;;8.37;5.27;;;11.00;79.80;;;;;;5032035;28;20487;-75
2022/10/05 01:21:31;;;;;;;12.60;6.23;;;11.00;79.90;;;;;;5031482;28;20459;-76
2022/10/05 01:24:39;;;;;;;39.20;11.83;;;11.00;79.80;;;;;;5026337;28;21219;-74
2022/10/05 01:27:33;;;;;;;21.57;10.20;;;11.00;79.60;;;;;;5026463;28;20522;-76
2022/10/05 01:30:06;;;;;;;28.73;12.43;;;10.90;79.60;;;;;;5034353;28;20956;-76
2022/10/05 01:32:40;;;;;;;20.77;9.47;;;10.90;79.70;;;;;;5025845;28;20890;-75
2022/10/05 01:35:21;;;;;;;13.60;7.77;;;10.80;79.70;;;;;;5026397;28;20456;-76
2022/10/05 01:37:58;;;;;;;31.60;13.70;;;10.80;79.80;;;;;;5029809;28;20476;-73
2022/10/05 01:40:38;;;;;;;23.67;11.60;;;10.80;80.00;;;;;;5037105;28;20459;-76
2022/10/05 01:43:17;;;;;;;22.20;9.70;;;10.80;79.80;;;;;;5028514;28;20452;-75
2022/10/05 01:45:58;;;;;;;17.80;9.33;;;10.70;79.70;;;;;;5022836;28;20460;-75
2022/10/05 01:48:35;;;;;;;15.80;9.00;;;10.60;79.70;;;;;;5030307;28;20476;-76
2022/10/05 01:51:11;;;;;;;15.03;8.83;;;10.60;79.90;;;;;;5024369;28;20549;-75
2022/10/05 01:53:52;;;;;;;11.53;7.50;;;10.50;79.90;;;;;;5016237;28;20463;-75
2022/10/05 01:56:27;;;;;;;11.30;6.63;;;10.50;80.10;;;;;;5026170;28;21036;-75
2022/10/05 01:59:06;;;;;;;11.43;7.10;;;10.50;80.30;;;;;;5017642;28;20579;-75
2022/10/05 02:01:43;;;;;;;12.53;7.27;;;10.50;80.40;;;;;;5024809;28;20480;-75
2022/10/05 02:04:15;;;;;;;11.70;7.60;;;10.60;80.40;;;;;;5025064;28;20459;-74
2022/10/05 02:07:08;;;;;;;12.67;7.73;;;10.60;80.30;;;;;;5025376;28;20479;-75
2022/10/05 02:09:43;;;;;;;14.70;6.53;;;10.60;80.20;;;;;;5026955;28;20463;-74
2022/10/05 02:12:15;;;;;;;14.57;7.80;;;10.60;80.00;;;;;;5024074;28;20460;-76
2022/10/05 02:14:48;;;;;;;19.50;9.47;;;10.50;79.80;;;;;;5018964;28;21103;-76
2022/10/05 02:17:19;;;;;;;33.07;14.83;;;10.50;79.80;;;;;;5027025;28;20537;-75
2022/10/05 02:19:51;;;;;;;14.83;7.60;;;10.40;79.80;;;;;;5029725;28;20498;-76
2022/10/05 02:22:24;;;;;;;13.13;7.60;;;10.40;80.00;;;;;;5023699;28;20468;-76
2022/10/05 02:24:57;;;;;;;11.60;7.07;;;10.40;80.10;;;;;;5030112;28;20447;-76
2022/10/05 02:27:30;;;;;;;13.40;7.03;;;10.50;80.10;;;;;;5021969;28;20487;-76
2022/10/05 02:30:02;;;;;;;9.87;6.27;;;10.50;80.10;;;;;;5026442;28;20513;-76
2022/10/05 02:32:40;;;;;;;8.53;5.53;;;10.50;79.90;;;;;;5032245;28;21328;-75
2022/10/05 02:35:14;;;;;;;7.50;4.57;;;10.40;79.90;;;;;;5018174;28;20479;-75
2022/10/05 02:37:56;;;;;;;18.57;8.67;;;10.40;80.00;;;;;;5016249;28;21083;-76
2022/10/05 02:40:37;;;;;;;20.53;8.73;;;10.40;80.00;;;;;;5023446;28;20483;-75
2022/10/05 02:43:19;;;;;;;23.00;9.70;;;10.40;79.90;;;;;;5040945;28;21040;-76
2022/10/05 02:45:56;;;;;;;34.83;15.10;;;10.40;79.90;;;;;;5025104;28;20468;-76
2022/10/05 02:48:36;;;;;;;27.47;11.50;;;10.40;79.90;;;;;;5021958;28;20479;-76
2022/10/05 02:51:15;;;;;;;13.07;7.10;;;10.40;80.00;;;;;;5023086;28;20885;-76
2022/10/05 02:53:59;;;;;;;22.43;10.60;;;10.30;79.90;;;;;;5021554;28;20545;-75
2022/10/05 02:56:36;;;;;;;12.80;6.90;;;10.30;79.80;;;;;;5024794;28;20460;-76
2022/10/05 02:59:13;;;;;;;17.00;8.70;;;10.30;79.90;;;;;;5024113;28;20459;-75
2022/10/05 03:01:46;;;;;;;14.03;7.83;;;10.20;79.80;;;;;;5014033;28;21090;-75
2022/10/05 03:04:28;;;;;;;13.50;7.57;;;10.20;79.90;;;;;;5024007;28;21022;-76
2022/10/05 03:07:10;;;;;;;12.43;7.47;;;10.20;79.90;;;;;;5023941;28;21184;-76
2022/10/05 03:09:43;;;;;;;17.80;6.70;;;10.20;79.70;;;;;;5024341;28;20460;-76
2022/10/05 03:12:28;;;;;;;11.97;6.93;;;10.10;79.70;;;;;;5037593;28;20467;-75
2022/10/05 03:15:08;;;;;;;13.60;7.43;;;10.00;79.80;;;;;;5025058;28;21198;-75
2022/10/05 03:17:45;;;;;;;15.10;6.33;;;9.90;80.00;;;;;;5023873;28;20480;-74
2022/10/05 03:20:28;;;;;;;8.63;5.73;;;9.90;79.90;;;;;;5013886;28;20483;-77
2022/10/05 03:23:00;;;;;;;8.60;5.93;;;9.90;80.00;;;;;;5017046;28;20471;-74
2022/10/05 03:25:43;;;;;;;11.03;6.77;;;9.90;80.10;;;;;;5040021;28;20490;-75
2022/10/05 03:28:22;;;;;;;13.83;9.17;;;9.90;80.10;;;;;;5026044;28;20594;-76
2022/10/05 03:31:01;;;;;;;13.37;7.40;;;9.90;80.10;;;;;;5027449;28;20462;-76
2022/10/05 03:33:42;;;;;;;9.50;6.80;;;9.90;80.10;;;;;;5045149;28;20480;-75
2022/10/05 03:36:19;;;;;;;10.03;7.00;;;9.90;80.20;;;;;;5026929;28;20878;-75
2022/10/05 03:38:55;;;;;;;13.33;6.33;;;9.90;80.30;;;;;;5028791;28;20490;-75
2022/10/05 03:41:31;;;;;;;11.77;5.77;;;10.00;80.30;;;;;;5026551;28;20855;-76
2022/10/05 03:44:25;;;;;;;7.90;5.50;;;10.00;80.20;;;;;;5038092;28;20486;-75
2022/10/05 03:47:09;;;;;;;7.87;5.67;;;10.00;80.10;;;;;;5020901;28;21023;-75
2022/10/05 03:50:05;;;;;;;8.70;5.30;;;10.00;80.10;;;;;;5026520;28;20483;-77
2022/10/05 03:52:39;;;;;;;9.63;5.70;;;10.00;80.00;;;;;;5027615;28;20491;-76
2022/10/05 03:55:18;;;;;;;8.57;5.70;;;10.00;79.90;;;;;;5031636;28;21046;-74
2022/10/05 03:57:49;;;;;;;8.27;4.73;;;10.00;79.90;;;;;;5027551;28;20566;-75
2022/10/05 04:00:21;;;;;;;8.03;5.17;;;10.00;79.90;;;;;;5028180;28;21413;-76
2022/10/05 04:03:04;;;;;;;5.90;4.00;;;10.00;79.80;;;;;;5026246;28;20923;-76
2022/10/05 04:05:38;;;;;;;7.23;4.70;;;10.00;79.90;;;;;;5022683;28;20459;-77
2022/10/05 04:08:12;;;;;;;10.10;6.30;;;10.00;79.70;;;;;;5026392;28;20479;-77
2022/10/05 04:10:44;;;;;;;10.55;6.07;;;10.00;79.60;;;;;;5027388;28;20466;-77
2022/10/05 04:13:17;;;;;;;11.90;6.00;;;9.90;79.60;;;;;;5021540;28;20213;-77
2022/10/05 04:15:51;;;;;;;7.97;5.70;;;9.90;79.60;;;;;;5037978;28;20546;-76
2022/10/05 04:18:26;;;;;;;9.67;5.23;;;9.90;79.60;;;;;;5025564;28;20624;-75
2022/10/05 04:21:00;;;;;;;8.43;5.60;;;9.90;79.60;;;;;;5025817;28;20499;-75
2022/10/05 04:23:40;;;;;;;9.43;5.40;;;10.00;79.60;;;;;;5024597;28;20464;-75
2022/10/05 04:26:13;;;;;;;7.25;4.93;;;10.00;79.50;;;;;;5032952;28;21150;-75
2022/10/05 04:28:49;;;;;;;8.93;5.57;;;9.90;79.30;;;;;;5022346;28;20706;-76
2022/10/05 04:31:29;;;;;;;6.60;4.70;;;9.90;79.20;;;;;;5041599;28;20457;-75
2022/10/05 04:34:04;;;;;;;6.90;4.63;;;9.90;79.30;;;;;;5026132;28;20475;-75
2022/10/05 04:36:40;;;;;;;10.17;5.80;;;9.90;79.30;;;;;;5027184;28;20468;-74
2022/10/05 04:39:18;;;;;;;7.60;4.70;;;9.80;79.30;;;;;;5047643;28;20464;-75
2022/10/05 04:41:57;;;;;;;8.40;5.10;;;9.80;79.20;;;;;;5025376;28;20475;-75
2022/10/05 04:44:59;;;;;;;8.17;5.47;;;9.80;79.20;;;;;;5028286;28;20506;-76
2022/10/05 04:47:55;;;;;;;8.70;4.97;;;9.80;79.20;;;;;;5027822;28;20984;-76
2022/10/05 04:50:32;;;;;;;7.73;4.90;;;9.80;79.10;;;;;;5025519;28;20460;-74
2022/10/05 04:53:16;;;;;;;6.73;4.30;;;9.80;79.10;;;;;;5024718;28;20468;-77
2022/10/05 04:55:54;;;;;;;7.32;4.68;;;9.70;79.00;;;;;;5018826;28;20467;-76
2022/10/05 04:58:37;;;;;;;7.67;4.90;;;9.70;78.90;;;;;;5032815;28;20239;-76
2022/10/05 05:01:21;;;;;;;7.27;4.73;;;9.70;78.90;;;;;;5025621;28;20557;-75
2022/10/05 05:04:10;;;;;;;12.43;5.40;;;9.70;78.90;;;;;;5024316;28;20562;-76
2022/10/05 05:06:45;;;;;;;6.47;4.27;;;9.60;78.90;;;;;;5024716;28;20459;-76
2022/10/05 05:09:27;;;;;;;7.53;4.30;;;9.60;78.90;;;;;;5045065;28;20492;-76
2022/10/05 05:12:11;;;;;;;9.03;4.40;;;9.60;78.80;;;;;;5023414;28;20831;-77
2022/10/05 05:15:02;;;;;;;12.43;6.80;;;9.60;78.80;;;;;;5017369;28;20472;-76
2022/10/05 05:17:45;;;;;;;21.30;9.40;;;9.50;78.70;;;;;;5018031;28;20487;-76
2022/10/05 05:20:21;;;;;;;28.60;15.45;;;9.50;78.80;;;;;;5023458;28;20883;-75
2022/10/05 05:22:57;;;;;;;15.10;8.83;;;9.40;78.80;;;;;;5018897;28;20217;-76
2022/10/05 05:25:37;;;;;;;18.10;10.63;;;9.40;78.90;;;;;;5016382;28;20479;-75
2022/10/05 05:28:18;;;;;;;27.80;15.80;;;9.40;78.90;;;;;;5027277;28;20492;-75
2022/10/05 05:30:52;;;;;;;28.53;15.33;;;9.40;78.90;;;;;;5016617;28;21352;-76
2022/10/05 05:33:23;;;;;;;12.50;7.53;;;9.40;78.90;;;;;;5024810;28;20503;-76
2022/10/05 05:36:17;;;;;;;11.13;6.70;;;9.40;78.90;;;;;;5022866;28;20324;-74
2022/10/05 05:39:03;;;;;;;11.70;5.40;;;9.50;78.90;;;;;;5025527;28;20849;-74
2022/10/05 05:41:38;;;;;;;11.80;7.13;;;9.50;78.80;;;;;;5016760;28;20471;-75
2022/10/05 05:44:19;;;;;;;12.33;7.30;;;9.40;78.80;;;;;;5036492;28;21182;-76
2022/10/05 05:46:56;;;;;;;15.33;8.60;;;9.40;78.70;;;;;;5025985;28;20460;-75
2022/10/05 05:49:48;;;;;;;10.03;6.40;;;9.40;78.80;;;;;;5053743;28;20462;-76
2022/10/05 05:52:23;;;;;;;16.08;6.85;;;9.40;78.90;;;;;;5026743;28;20463;-74
2022/10/05 05:54:57;;;;;;;10.37;5.40;;;9.50;78.80;;;;;;5016562;28;20237;-77
2022/10/05 05:57:29;;;;;;;19.00;5.70;;;9.40;78.70;;;;;;5024839;28;20514;-75
2022/10/05 06:00:06;;;;;;;8.33;4.80;;;9.40;78.50;;;;;;5032987;28;20230;-75
2022/10/05 06:02:45;;;;;;;9.20;5.83;;;9.30;78.60;;;;;;5016521;28;20626;-76
2022/10/05 06:05:31;;;;;;;9.88;5.70;;;9.30;78.60;;;;;;5021972;28;20482;-75
2022/10/05 06:08:07;;;;;;;6.57;4.45;;;9.30;78.80;;;;;;5023732;28;20234;-77
2022/10/05 06:10:42;;;;;;;7.30;4.37;;;9.30;78.80;;;;;;5019811;28;20201;-75
2022/10/05 06:13:17;;;;;;;6.20;3.55;;;9.40;78.80;;;;;;5028167;28;20492;-75
2022/10/05 06:15:52;;;;;;;4.83;2.77;;;9.40;78.80;;;;;;5016911;28;20229;-77
2022/10/05 06:18:22;;;;;;;5.10;3.13;;;9.40;78.80;;;;;;5024375;28;20507;-75
2022/10/05 06:20:57;;;;;;;7.70;2.97;;;9.40;78.90;;;;;;5022733;28;20204;-77
2022/10/05 06:23:30;;;;;;;6.78;2.92;;;9.40;78.90;;;;;;5024298;28;20502;-75
2022/10/05 06:26:17;;;;;;;5.30;3.00;;;9.50;78.90;;;;;;5022955;28;20196;-74
2022/10/05 06:28:50;;;;;;;4.87;2.90;;;9.50;78.90;;;;;;4995841;28;20231;-75
2022/10/05 06:31:37;;;;;;;4.80;2.63;;;9.50;79.00;;;;;;5022234;28;20834;-75
2022/10/05 06:34:22;;;;;;;4.70;2.60;;;9.60;79.00;;;;;;5019790;28;20539;-76
2022/10/05 06:36:53;;;;;;;5.40;2.63;;;9.60;79.00;;;;;;5023788;28;20476;-74
2022/10/05 06:39:35;;;;;;;5.43;2.90;;;9.60;79.00;;;;;;5026885;28;20550;-75
2022/10/05 06:42:22;;;;;;;5.40;2.85;;;9.70;79.00;;;;;;5021031;28;20501;-76
2022/10/05 06:45:20;;;;;;;6.40;3.40;;;9.70;79.00;;;;;;5028477;28;20204;-75
2022/10/05 06:48:05;;;;;;;5.00;2.63;;;9.70;79.00;;;;;;5024554;28;21000;-76
2022/10/05 06:50:45;;;;;;;9.97;4.93;;;9.70;79.00;;;;;;5032170;28;20459;-77
2022/10/05 06:53:38;;;;;;;6.03;3.70;;;9.70;79.10;;;;;;5027093;28;20851;-75
2022/10/05 06:56:11;;;;;;;5.50;3.37;;;9.70;79.20;;;;;;5022319;28;21003;-74
2022/10/05 06:58:51;;;;;;;5.17;3.20;;;9.80;79.20;;;;;;5015502;28;20546;-74
2022/10/05 07:01:31;;;;;;;5.60;3.58;;;9.80;79.30;;;;;;5022896;28;21050;-75
2022/10/05 07:04:15;;;;;;;6.03;3.80;;;9.80;79.30;;;;;;5016716;28;20247;-74
2022/10/05 07:06:51;;;;;;;7.27;3.30;;;9.90;79.40;;;;;;5024241;28;20538;-75
2022/10/05 07:09:28;;;;;;;5.20;3.30;;;9.90;79.50;;;;;;5055952;28;21620;-75
2022/10/05 07:12:28;;;;;;;6.00;3.67;;;10.00;79.50;;;;;;5025251;28;20456;-76
2022/10/05 07:15:12;;;;;;;8.33;4.10;;;10.00;79.60;;;;;;5026397;28;20627;-76
2022/10/05 07:17:50;;;;;;;6.60;4.20;;;10.10;79.60;;;;;;5029017;28;20545;-76
2022/10/05 07:20:28;;;;;;;7.87;4.07;;;10.10;79.70;;;;;;5029692;28;20454;-75
2022/10/05 07:23:24;;;;;;;5.63;3.80;;;10.20;79.70;;;;;;5041754;28;20905;-74
2022/10/05 07:26:03;;;;;;;5.93;3.73;;;10.20;79.80;;;;;;5026067;28;20563;-74
2022/10/05 07:28:41;;;;;;;8.73;4.03;;;10.30;80.00;;;;;;5033863;28;20475;-73
2022/10/05 07:31:16;;;;;;;7.23;4.23;;;10.30;80.10;;;;;;5023753;28;20517;-75
2022/10/05 07:33:51;;;;;;;8.20;4.47;;;10.40;80.10;;;;;;5026020;28;20464;-75
2022/10/05 07:39:31;;;;;;;8.00;4.87;;;10.50;80.40;;;;;;5031980;28;20459;-77
2022/10/05 07:42:27;;;;;;;7.67;4.93;;;10.60;80.40;;;;;;5047962;28;20487;-77
2022/10/05 07:45:09;;;;;;;8.70;5.57;;;10.70;80.60;;;;;;5052806;28;20539;-77
2022/10/05 07:47:41;;;;;;;6.67;4.37;;;10.70;80.70;;;;;;5052437;28;20511;-81
2022/10/05 07:50:20;;;;;;;8.00;5.50;;;10.80;80.80;;;;;;5029747;28;20456;-80
2022/10/05 07:52:55;;;;;;;12.63;6.33;;;10.90;81.00;;;;;;5027852;28;20881;-80
2022/10/05 07:55:26;;;;;;;11.67;6.30;;;11.00;81.10;;;;;;5026376;28;20459;-80
2022/10/05 07:58:06;;;;;;;10.20;7.00;;;11.10;81.20;;;;;;5041283;28;21079;-81
2022/10/05 08:00:58;;;;;;;14.20;9.73;;;11.20;81.40;;;;;;5026425;28;21162;-80
2022/10/05 08:03:37;;;;;;;13.70;9.37;;;11.30;81.50;;;;;;5025710;28;20586;-81
2022/10/05 08:06:07;;;;;;;16.90;10.40;;;11.40;81.60;;;;;;5027681;28;20444;-82
2022/10/05 08:08:47;;;;;;;19.10;11.37;;;11.50;81.60;;;;;;5025980;28;20499;-79
2022/10/05 08:11:20;;;;;;;16.50;11.70;;;11.60;81.90;;;;;;5025465;28;20468;-78
2022/10/05 08:13:54;;;;;;;18.47;13.60;;;11.80;82.00;;;;;;5026601;28;20452;-80
2022/10/05 08:16:27;;;;;;;21.60;13.73;;;11.90;82.30;;;;;;5032739;28;20471;-81
2022/10/05 08:18:59;;;;;;;21.07;13.80;;;12.00;82.50;;;;;;5025550;28;20475;-78
2022/10/05 08:21:33;;;;;;;20.83;14.60;;;12.10;82.60;;;;;;5026449;28;20456;-80
2022/10/05 08:24:14;;;;;;;25.50;14.90;;;12.20;82.80;;;;;;5027833;28;20460;-79
2022/10/05 08:26:51;;;;;;;24.30;16.20;;;12.30;82.90;;;;;;5026216;28;20455;-80
2022/10/05 08:29:26;;;;;;;22.43;15.50;;;12.40;83.20;;;;;;5041976;28;20510;-82
2022/10/05 08:32:00;;;;;;;23.40;14.77;;;12.50;83.30;;;;;;5029273;28;20463;-80
2022/10/05 08:34:37;;;;;;;23.03;14.80;;;12.60;83.60;;;;;;5025261;28;20464;-82
2022/10/05 08:37:08;;;;;;;17.97;13.20;;;12.80;83.80;;;;;;5027666;28;20490;-82
2022/10/05 08:39:41;;;;;;;22.67;12.80;;;12.90;83.90;;;;;;5034271;28;20451;-81
2022/10/05 08:42:50;;;;;;;19.57;12.20;;;13.00;84.10;;;;;;5027377;28;20468;-83
2022/10/05 08:45:35;;;;;;;20.30;12.80;;;13.10;84.10;;;;;;5027446;28;20452;-81
2022/10/05 08:48:33;;;;;;;19.50;13.00;;;13.20;84.20;;;;;;5017815;28;20487;-82
2022/10/05 08:51:30;;;;;;;19.50;12.50;;;13.30;84.30;;;;;;5021756;28;20475;-82
2022/10/05 08:54:27;;;;;;;20.90;11.50;;;13.40;84.50;;;;;;4999824;28;20891;-80
2022/10/05 08:57:16;;;;;;;18.07;11.97;;;13.50;84.40;;;;;;5026016;28;20490;-82
2022/10/05 09:00:10;;;;;;;18.80;12.53;;;13.60;84.50;;;;;;5024600;28;20443;-81
2022/10/05 09:02:58;;;;;;;19.90;12.30;;;13.70;84.60;;;;;;5021678;28;20491;-76
2022/10/05 09:06:21;;;;;;;22.87;14.47;;;13.80;84.70;;;;;;5023883;28;20485;-75
2022/10/05 09:09:09;;;;;;;20.90;13.03;;;13.80;84.90;;;;;;4979156;28;20483;-76
2022/10/05 09:11:39;;;;;;;19.07;13.23;;;13.90;84.90;;;;;;5023015;28;20484;-76
2022/10/05 09:14:23;;;;;;;20.57;13.70;;;13.90;84.80;;;;;;5030715;28;20448;-75
2022/10/05 09:17:01;;;;;;;18.90;13.40;;;14.00;84.90;;;;;;5027987;28;20538;-74
2022/10/05 09:20:21;;;;;;;22.60;13.53;;;14.00;85.10;;;;;;5027877;28;20518;-77
2022/10/05 09:22:59;;;;;;;18.17;13.27;;;14.10;85.10;;;;;;5028068;28;21184;-77
2022/10/05 09:25:42;;;;;;;19.27;12.37;;;14.20;85.20;;;;;;5027008;28;20455;-76
2022/10/05 09:28:24;;;;;;;18.13;12.10;;;14.20;85.30;;;;;;5027292;28;20471;-76
2022/10/05 09:31:15;;;;;;;15.87;11.30;;;14.20;85.30;;;;;;5023407;28;20983;-75
2022/10/05 09:34:15;;;;;;;16.07;11.10;;;14.30;85.30;;;;;;5025894;28;20443;-76
2022/10/05 09:37:32;;;;;;;15.90;11.53;;;14.40;85.50;;;;;;5018387;28;20475;-75
2022/10/05 09:40:31;;;;;;;15.73;10.57;;;14.50;85.50;;;;;;4939990;29;20549;-76
2022/10/05 09:43:30;;;;;;;20.67;13.93;;;14.50;85.50;;;;;;4940103;28;20484;-77
2022/10/05 09:46:38;;;;;;;16.77;12.00;;;14.60;85.40;;;;;;5003705;28;20527;-77
2022/10/05 09:49:23;;;;;;;16.87;12.20;;;14.60;85.50;;;;;;4996460;28;20464;-77
2022/10/05 09:52:21;;;;;;;14.33;10.43;;;14.70;85.60;;;;;;5023173;28;20519;-77
2022/10/05 09:55:22;;;;;;;15.27;11.10;;;14.70;85.70;;;;;;5023501;28;20460;-77
2022/10/05 09:58:32;;;;;;;13.70;10.27;;;14.80;85.80;;;;;;5028041;28;20498;-77
2022/10/05 10:01:24;;;;;;;14.57;9.80;;;14.90;85.80;;;;;;5024781;28;20471;-77
2022/10/05 10:04:28;;;;;;;14.20;10.03;;;15.00;85.90;;;;;;5025775;28;20580;-77
2022/10/05 10:07:27;;;;;;;15.20;9.60;;;15.00;85.90;;;;;;5025423;28;20491;-77
2022/10/05 10:10:20;;;;;;;14.93;9.47;;;15.00;85.90;;;;;;5026673;28;20459;-75
2022/10/05 10:13:06;;;;;;;11.10;8.87;;;15.10;86.00;;;;;;4999010;28;20459;-76
2022/10/05 10:16:03;;;;;;;12.30;8.90;;;15.10;86.10;;;;;;5027105;28;20455;-76
2022/10/05 10:19:08;;;;;;;14.57;8.67;;;15.20;86.10;;;;;;5027953;28;20557;-77
2022/10/05 10:22:06;;;;;;;14.30;8.60;;;15.30;86.20;;;;;;5026816;28;20559;-77
2022/10/05 10:25:01;;;;;;;12.20;7.20;;;15.30;86.20;;;;;;5003092;28;20550;-75
2022/10/05 10:27:53;;;;;;;11.83;7.33;;;15.40;86.10;;;;;;5024308;28;20969;-75
2022/10/05 10:30:41;;;;;;;12.37;7.10;;;15.50;86.00;;;;;;5029441;28;20444;-76
2022/10/05 10:33:30;;;;;;;12.13;7.37;;;15.50;86.00;;;;;;5023871;28;20995;-76
2022/10/05 10:36:03;;;;;;;9.30;6.20;;;15.60;86.10;;;;;;5028606;28;20507;-75
2022/10/05 10:38:41;;;;;;;9.33;6.43;;;15.60;86.10;;;;;;5024229;28;20485;-77
2022/10/05 10:41:39;;;;;;;12.90;5.63;;;15.70;86.00;;;;;;5021583;28;20662;-77
2022/10/05 10:44:41;;;;;;;10.50;5.97;;;15.80;86.00;;;;;;5024790;28;20505;-75
2022/10/05 10:47:54;;;;;;;10.53;5.20;;;15.80;86.00;;;;;;5025806;28;20555;-77
2022/10/05 10:50:42;;;;;;;9.93;5.30;;;15.90;86.00;;;;;;5012463;28;20464;-77
2022/10/05 10:53:29;;;;;;;8.57;5.80;;;16.00;85.90;;;;;;5026407;28;20475;-75
2022/10/05 10:56:14;;;;;;;7.33;5.30;;;16.00;85.90;;;;;;5027146;28;20528;-76
2022/10/05 10:59:18;;;;;;;8.63;4.87;;;16.10;85.80;;;;;;5026381;28;21166;-76
2022/10/05 11:02:02;;;;;;;10.43;5.33;;;16.20;85.80;;;;;;5027837;28;20463;-78
2022/10/05 11:05:21;;;;;;;6.43;4.33;;;16.30;85.70;;;;;;5023554;28;20550;-76
2022/10/05 11:08:09;;;;;;;9.07;3.93;;;16.40;85.50;;;;;;5026059;28;20479;-75
2022/10/05 11:11:04;;;;;;;6.70;4.30;;;16.50;86.30;;;;;;5021540;28;20456;-75
2022/10/05 11:14:02;;;;;;;7.10;4.33;;;16.80;86.20;;;;;;5016323;28;20872;-76
2022/10/05 11:17:06;;;;;;;7.70;3.70;;;17.10;86.20;;;;;;4988579;28;20480;-75
2022/10/05 11:19:46;;;;;;;7.20;4.60;;;17.40;85.80;;;;;;5019925;28;20455;-75
2022/10/05 11:22:57;;;;;;;7.40;4.40;;;17.60;85.30;;;;;;5022591;28;20444;-76
2022/10/05 11:25:48;;;;;;;6.53;3.60;;;17.80;84.90;;;;;;5025564;28;20447;-76
2022/10/05 11:28:40;;;;;;;6.70;3.80;;;17.90;84.50;;;;;;5024893;28;20483;-75
2022/10/05 11:31:58;;;;;;;6.93;3.40;;;18.00;84.20;;;;;;5027635;28;21128;-76
2022/10/05 11:35:09;;;;;;;6.00;3.70;;;18.10;83.90;;;;;;4961208;28;20475;-75
2022/10/05 11:37:58;;;;;;;8.10;3.93;;;18.20;83.60;;;;;;4941127;28;20492;-76
2022/10/05 11:40:51;;;;;;;6.10;3.50;;;18.20;83.30;;;;;;5020487;28;20459;-75
2022/10/05 11:43:58;;;;;;;8.50;3.90;;;18.30;83.20;;;;;;5025585;28;21032;-74
2022/10/05 11:46:40;;;;;;;8.67;3.63;;;18.30;82.90;;;;;;5015727;28;20505;-75
2022/10/05 11:49:25;;;;;;;8.40;3.77;;;18.30;82.70;;;;;;5022245;28;20908;-75
2022/10/05 11:52:05;;;;;;;6.00;3.50;;;18.40;82.60;;;;;;5028320;28;21154;-75
2022/10/05 11:55:00;;;;;;;7.53;3.90;;;18.40;82.40;;;;;;5026807;28;20950;-74
2022/10/05 11:57:50;;;;;;;7.57;4.30;;;18.40;82.30;;;;;;5036526;28;20480;-76
2022/10/05 12:00:20;;;;;;;8.73;3.83;;;18.50;82.30;;;;;;5027011;28;20467;-75
2022/10/05 12:03:08;;;;;;;6.17;3.27;;;18.50;82.20;;;;;;5029421;28;20474;-75
2022/10/05 12:05:44;;;;;;;8.27;3.20;;;18.50;82.00;;;;;;5026490;28;20482;-74
2022/10/05 12:08:25;;;;;;;5.53;3.30;;;18.50;81.90;;;;;;5026769;28;20471;-76
2022/10/05 12:11:07;;;;;;;9.33;3.80;;;18.50;82.00;;;;;;5025699;28;20579;-76
2022/10/05 12:13:41;;;;;;;7.50;3.50;;;18.60;81.60;;;;;;5026189;28;20522;-76
2022/10/05 12:16:17;;;;;;;6.60;3.47;;;18.60;81.60;;;;;;5029447;28;21474;-77
2022/10/05 12:19:00;;;;;;;7.20;4.07;;;18.60;81.60;;;;;;5025306;28;20487;-75
2022/10/05 12:21:37;;;;;;;9.30;3.70;;;18.70;81.40;;;;;;5027499;28;20502;-76
2022/10/05 12:24:14;;;;;;;6.50;4.00;;;18.70;81.30;;;;;;5026521;28;20479;-76
2022/10/05 12:26:48;;;;;;;8.97;3.70;;;18.70;81.20;;;;;;5029021;28;20529;-75
2022/10/05 12:29:23;;;;;;;5.90;3.73;;;18.80;81.10;;;;;;5028755;28;20703;-76
2022/10/05 12:31:58;;;;;;;5.57;3.40;;;18.80;81.10;;;;;;5025066;28;20458;-77
2022/10/05 12:34:47;;;;;;;8.27;3.30;;;18.80;80.90;;;;;;5026821;28;20476;-75
2022/10/05 12:37:37;;;;;;;9.73;4.00;;;18.80;81.00;;;;;;5028490;28;20542;-76
2022/10/05 12:40:15;;;;;;;10.80;3.43;;;18.80;80.90;;;;;;5043224;28;20514;-76
2022/10/05 12:42:50;;;;;;;6.10;4.30;;;18.90;80.80;;;;;;5025762;28;20518;-76
2022/10/05 12:45:27;;;;;;;10.17;3.63;;;18.90;80.80;;;;;;5027702;28;20467;-76
2022/10/05 12:48:19;;;;;;;9.40;3.40;;;18.90;80.60;;;;;;5027094;28;20495;-75
2022/10/05 12:50:50;;;;;;;6.53;3.33;;;18.90;80.60;;;;;;5026416;28;20483;-75
2022/10/05 12:53:30;;;;;;;5.77;3.67;;;19.00;80.50;;;;;;5038675;28;20471;-76
2022/10/05 12:56:04;;;;;;;6.33;3.10;;;19.00;80.60;;;;;;5031131;28;20468;-76
2022/10/05 12:58:42;;;;;;;7.87;3.80;;;19.00;80.50;;;;;;5029411;28;21002;-76
2022/10/05 13:01:28;;;;;;;7.20;4.13;;;19.10;80.40;;;;;;5026195;28;20475;-75
2022/10/05 13:04:04;;;;;;;6.83;3.33;;;19.10;80.30;;;;;;5027460;28;20464;-75
2022/10/05 13:06:44;;;;;;;8.63;3.37;;;19.10;80.30;;;;;;5041292;28;20461;-74
2022/10/05 13:09:17;;;;;;;5.00;2.50;;;19.10;80.30;;;;;;5025741;28;21184;-76
2022/10/05 13:11:48;;;;;;;10.93;3.87;;;19.10;80.30;;;;;;5030760;28;20527;-75
2022/10/05 13:14:33;;;;;;;7.60;3.60;;;19.20;80.30;;;;;;5026644;28;20461;-76
2022/10/05 13:17:07;;;;;;;6.00;3.40;;;19.20;80.20;;;;;;5028360;28;20554;-76
2022/10/05 13:19:43;;;;;;;8.33;3.50;;;19.20;80.20;;;;;;5026579;28;20557;-76
2022/10/05 13:22:27;;;;;;;7.73;3.20;;;19.20;80.10;;;;;;5024438;28;20463;-76
2022/10/05 13:25:07;;;;;;;6.60;4.00;;;19.30;80.10;;;;;;5026749;28;20461;-75
2022/10/05 13:27:40;;;;;;;6.93;3.10;;;19.30;79.90;;;;;;5025987;28;20480;-75
2022/10/05 13:30:15;;;;;;;6.27;3.50;;;19.30;80.00;;;;;;5028211;28;20949;-76
2022/10/05 13:32:46;;;;;;;17.90;3.50;;;19.30;79.90;;;;;;5029663;28;20517;-76
2022/10/05 13:35:39;;;;;;;5.90;3.10;;;19.40;79.90;;;;;;5026490;28;20468;-77
2022/10/05 13:38:21;;;;;;;8.40;4.17;;;19.40;79.80;;;;;;5028904;28;21025;-76
2022/10/05 13:40:59;;;;;;;7.03;3.73;;;19.50;79.70;;;;;;5022878;28;20465;-75
2022/10/05 13:43:37;;;;;;;6.20;3.73;;;19.50;79.70;;;;;;5027738;28;20559;-74
2022/10/05 13:46:11;;;;;;;8.13;3.40;;;19.50;79.70;;;;;;5027917;28;20455;-74
2022/10/05 13:48:55;;;;;;;7.80;3.63;;;19.50;79.70;;;;;;5026555;28;20547;-76
2022/10/05 13:51:27;;;;;;;6.93;2.80;;;19.50;79.60;;;;;;5026256;28;20587;-75
2022/10/05 13:54:05;;;;;;;6.37;3.20;;;19.60;79.40;;;;;;5023166;28;20467;-75
2022/10/05 13:56:37;;;;;;;6.73;3.63;;;19.60;79.30;;;;;;5028259;28;21013;-74
2022/10/05 13:59:14;;;;;;;5.43;3.03;;;19.60;79.30;;;;;;5026754;28;20480;-75